Time;durP1;ratioP1;P1;durP2;ratioP2;P2;SDS_P1;SDS_P2;PMS_P1;PMS_P2;Temp;Humidity;BMP_temperature;BMP_pressure;BME280_temperature;BME280_humidity;BME280_pressure;Samples;Min_cycle;Max_cycle;Signal;HPM_P1;HPM_P2
2022/03/24 00:03:16;;;;;;;5.97;4.00;;;;;;;19.87;39.21;97863.28;10542571;28;20475;-58
2022/03/24 00:08:37;;;;;;;7.05;4.18;;;;;;;19.87;39.06;97863.28;10531688;28;20124;-59
2022/03/24 00:13:57;;;;;;;7.03;4.82;;;;;;;19.86;39.02;97861.72;10516324;28;20056;-58
2022/03/24 00:19:17;;;;;;;6.03;4.10;;;;;;;19.86;39.02;97850.88;10562263;28;20048;-59
2022/03/24 00:24:37;;;;;;;5.18;4.07;;;;;;;19.86;39.03;97852.81;10499135;28;20056;-59
2022/03/24 00:29:57;;;;;;;6.57;4.18;;;;;;;19.84;39.12;97846.91;10551898;28;20068;-58
2022/03/24 00:35:18;;;;;;;6.28;4.03;;;;;;;19.84;39.10;97847.69;10536768;28;20044;-59
2022/03/24 00:40:37;;;;;;;5.28;4.13;;;;;;;19.84;39.10;97852.31;10533031;28;20109;-59
2022/03/24 00:45:57;;;;;;;4.82;3.72;;;;;;;19.83;38.86;97851.47;10503730;28;20173;-59
2022/03/24 00:51:16;;;;;;;6.15;4.05;;;;;;;19.82;38.99;97841.78;10519479;28;20471;-59
2022/03/24 00:56:37;;;;;;;6.13;4.03;;;;;;;19.81;38.88;97850.97;10536242;28;20069;-59
2022/03/24 01:01:56;;;;;;;5.53;3.88;;;;;;;19.81;38.93;97836.66;10548019;28;20564;-59
2022/03/24 01:07:16;;;;;;;5.40;3.90;;;;;;;19.79;38.83;97836.16;10551350;28;20485;-59
2022/03/24 01:12:36;;;;;;;5.30;3.95;;;;;;;19.79;38.88;97838.88;10530129;28;20047;-59
2022/03/24 01:17:59;;;;;;;4.18;3.60;;;;;;;19.77;38.77;97831.06;10529181;28;20459;-59
2022/03/24 01:23:19;;;;;;;5.50;3.63;;;;;;;19.75;38.81;97823.22;10541203;28;20044;-59
2022/03/24 01:28:41;;;;;;;5.25;3.80;;;;;;;19.75;38.86;97825.94;10530149;28;20044;-59
2022/03/24 01:34:00;;;;;;;7.32;3.60;;;;;;;19.76;38.81;97834.88;10532812;28;20059;-59
2022/03/24 01:39:22;;;;;;;4.13;3.42;;;;;;;19.73;38.88;97821.94;10526595;28;20053;-59
2022/03/24 01:44:42;;;;;;;4.82;3.60;;;;;;;19.72;38.87;97823.84;10475001;28;20051;-58
2022/03/24 01:50:04;;;;;;;5.35;3.42;;;;;;;19.73;38.78;97824.66;10495613;28;20380;-58
2022/03/24 01:55:24;;;;;;;3.88;3.33;;;;;;;19.72;38.87;97829.25;10484479;28;20059;-58
2022/03/24 02:00:46;;;;;;;4.07;3.30;;;;;;;19.70;38.67;97823.31;10466310;28;20053;-59
2022/03/24 02:06:06;;;;;;;5.57;3.53;;;;;;;19.70;38.59;97819.81;10483513;28;20476;-59
2022/03/24 02:11:28;;;;;;;6.82;3.78;;;;;;;19.69;38.63;97815.50;10480073;28;20499;-58
2022/03/24 02:16:49;;;;;;;4.40;3.30;;;;;;;19.68;38.69;97816.59;10470936;28;20033;-59
2022/03/24 02:22:08;;;;;;;4.43;3.40;;;;;;;19.66;38.73;97814.22;10492694;28;20483;-58
2022/03/24 02:27:28;;;;;;;3.80;3.30;;;;;;;19.66;38.64;97819.63;10491073;28;20095;-58
2022/03/24 02:32:47;;;;;;;4.50;3.40;;;;;;;19.66;38.61;97810.69;10474502;28;20053;-59
2022/03/24 02:38:07;;;;;;;3.90;3.10;;;;;;;19.64;38.63;97812.88;10487619;28;20427;-58
2022/03/24 02:43:27;;;;;;;4.05;3.40;;;;;;;19.63;38.68;97811.31;10503608;28;20109;-58
2022/03/24 02:48:46;;;;;;;4.95;3.42;;;;;;;19.62;38.53;97807.81;10531479;28;20063;-59
2022/03/24 02:54:06;;;;;;;4.75;3.35;;;;;;;19.61;38.68;97800.78;10515403;28;20036;-59
2022/03/24 02:59:26;;;;;;;4.13;3.28;;;;;;;19.59;38.57;97802.19;10531011;28;20063;-58
2022/03/24 03:04:49;;;;;;;4.38;3.22;;;;;;;19.59;38.55;97802.19;10522759;28;20505;-58
2022/03/24 03:10:09;;;;;;;4.43;3.38;;;;;;;19.58;38.53;97800.56;10533095;28;20113;-59
2022/03/24 03:15:28;;;;;;;3.90;3.08;;;;;;;19.57;38.49;97821.41;10517450;28;20546;-58
2022/03/24 03:20:48;;;;;;;3.22;2.80;;;;;;;19.55;38.50;97810.88;10529545;28;20150;-58
2022/03/24 03:26:08;;;;;;;4.28;3.13;;;;;;;19.54;38.62;97814.72;10530226;28;20047;-58
2022/03/24 03:31:28;;;;;;;3.97;3.45;;;;;;;19.54;38.57;97820.13;10538284;28;20413;-58
2022/03/24 03:36:47;;;;;;;4.63;3.38;;;;;;;19.52;38.45;97822.31;10525507;28;20388;-59
2022/03/24 03:42:08;;;;;;;3.80;3.20;;;;;;;19.52;38.45;97824.19;10547211;28;20044;-59
2022/03/24 03:47:27;;;;;;;3.17;2.85;;;;;;;19.50;38.46;97821.81;10552813;28;20475;-58
2022/03/24 03:52:47;;;;;;;3.80;2.97;;;;;;;19.49;38.23;97820.19;10535630;28;20467;-59
2022/03/24 03:58:07;;;;;;;4.15;3.28;;;;;;;19.47;38.35;97822.41;10539697;28;20475;-59
2022/03/24 04:03:29;;;;;;;3.83;2.97;;;;;;;19.48;38.46;97825.88;10535669;28;20064;-58
2022/03/24 04:08:48;;;;;;;3.47;3.17;;;;;;;19.46;38.35;97820.78;10538572;28;20052;-58
2022/03/24 04:14:08;;;;;;;3.70;2.88;;;;;;;19.45;38.31;97819.19;10537988;28;20387;-59
2022/03/24 04:19:27;;;;;;;4.18;3.08;;;;;;;19.44;38.28;97817.56;10550771;28;20040;-58
2022/03/24 04:24:47;;;;;;;3.15;2.85;;;;;;;19.43;38.26;97820.59;10537345;28;20048;-59
2022/03/24 04:30:07;;;;;;;4.13;3.10;;;;;;;19.42;38.25;97825.19;10550041;28;20055;-58
2022/03/24 04:35:27;;;;;;;3.72;3.00;;;;;;;19.40;38.36;97824.69;10523179;28;20055;-59
2022/03/24 04:40:46;;;;;;;3.42;2.97;;;;;;;19.40;38.29;97821.97;10547821;28;20835;-58
2022/03/24 04:46:06;;;;;;;3.15;2.85;;;;;;;19.39;38.22;97819.59;10522232;28;20056;-59
2022/03/24 04:51:25;;;;;;;4.75;3.00;;;;;;;19.39;38.24;97817.69;10518544;28;20048;-58
2022/03/24 04:56:45;;;;;;;3.35;2.75;;;;;;;19.38;38.25;97824.19;10530229;28;20051;-59
2022/03/24 05:02:05;;;;;;;3.38;2.70;;;;;;;19.40;38.62;97824.69;10518594;28;20048;-58
2022/03/24 05:07:26;;;;;;;4.53;2.90;;;;;;;19.42;39.05;97824.38;10525604;28;20059;-59
2022/03/24 05:12:46;;;;;;;3.67;2.97;;;;;;;19.43;39.14;97821.41;10521274;28;20051;-59
2022/03/24 05:18:06;;;;;;;3.85;2.95;;;;;;;19.45;39.13;97826.50;10529334;28;20079;-58
2022/03/24 05:23:25;;;;;;;3.63;3.00;;;;;;;19.47;39.08;97827.00;10516503;28;20105;-58
2022/03/24 05:28:45;;;;;;;3.70;3.20;;;;;;;19.49;39.18;97841.03;10526298;28;20466;-57
2022/03/24 05:34:04;;;;;;;5.53;3.00;;;;;;;19.50;39.27;97832.63;10538222;28;20036;-57
2022/03/24 05:39:24;;;;;;;5.90;3.22;;;;;;;19.53;39.35;97839.31;10525356;28;20052;-58
2022/03/24 05:44:44;;;;;;;3.85;3.05;;;;;;;19.56;39.32;97846.81;10561814;28;20075;-59
2022/03/24 05:50:03;;;;;;;4.18;2.90;;;;;;;19.59;39.49;97846.22;10530385;28;20489;-59
2022/03/24 05:55:42;;;;;;;4.80;2.80;;;;;;;19.63;39.68;97844.53;10531920;28;20055;-58
2022/03/24 06:01:05;;;;;;;4.85;3.00;;;;;;;19.67;39.82;97850.16;10530946;28;20074;-58
2022/03/24 06:06:26;;;;;;;5.03;3.00;;;;;;;19.69;39.63;97851.44;10527455;28;20049;-59
2022/03/24 06:11:46;;;;;;;8.98;3.13;;;;;;;19.73;39.61;97851.69;10514633;28;20073;-60
2022/03/24 06:17:06;;;;;;;7.07;4.22;;;;;;;19.74;39.57;97853.28;10507590;28;20048;-59
2022/03/24 06:22:25;;;;;;;9.77;4.28;;;;;;;19.76;39.54;97848.38;10512763;28;20463;-59
2022/03/24 06:27:49;;;;;;;11.13;4.40;;;;;;;19.80;39.56;97860.22;10500270;28;20059;-59
2022/03/24 06:33:09;;;;;;;10.70;4.72;;;;;;;19.83;39.59;97856.09;10520451;28;20056;-59
2022/03/24 06:38:28;;;;;;;12.15;4.88;;;;;;;19.85;39.54;97854.69;10522495;28;20466;-59
2022/03/24 06:43:48;;;;;;;11.20;5.53;;;;;;;19.89;39.55;97849.47;10534371;28;20056;-60
2022/03/24 06:49:07;;;;;;;12.43;4.93;;;;;;;19.91;39.48;97858.88;10538640;28;20067;-59
2022/03/24 06:54:26;;;;;;;10.52;4.60;;;;;;;19.94;39.48;97861.00;10530189;28;20475;-60
2022/03/24 06:59:46;;;;;;;13.60;5.28;;;;;;;19.97;39.37;97864.22;10513761;28;20487;-59
2022/03/24 07:05:07;;;;;;;10.70;5.03;;;;;;;19.97;39.38;97862.28;10531740;28;20085;-59
2022/03/24 07:10:27;;;;;;;12.27;5.00;;;;;;;19.98;39.49;97858.50;10527245;28;20052;-59
2022/03/24 07:15:46;;;;;;;11.40;4.88;;;;;;;20.01;39.50;97867.91;10525388;28;20051;-59
2022/03/24 07:21:06;;;;;;;12.10;5.50;;;;;;;20.03;39.35;97865.69;10528670;28;20102;-59
2022/03/24 07:26:25;;;;;;;11.80;5.15;;;;;;;20.02;39.37;97867.63;10506342;28;20052;-59
2022/03/24 07:31:45;;;;;;;9.27;4.57;;;;;;;20.06;39.39;97878.63;10550261;28;20040;-59
2022/03/24 07:37:04;;;;;;;10.23;5.47;;;;;;;20.06;39.48;97881.34;10555967;28;20125;-59
2022/03/24 07:42:24;;;;;;;11.50;4.80;;;;;;;20.07;39.10;97885.63;10568174;28;20128;-59
2022/03/24 07:48:20;;;;;;;9.57;5.13;;;;;;;20.07;39.27;97882.94;10563379;28;20056;-59
2022/03/24 07:53:49;;;;;;;8.27;4.80;;;;;;;20.08;39.41;97892.66;10550621;28;20318;-60
2022/03/24 07:59:08;;;;;;;9.70;5.00;;;;;;;20.08;39.38;97887.25;10545583;28;20050;-59
2022/03/24 08:04:27;;;;;;;9.63;5.10;;;;;;;20.10;39.35;97887.75;10553660;28;20044;-59
2022/03/24 08:09:48;;;;;;;9.65;4.82;;;;;;;20.10;39.44;97887.75;10537195;28;20048;-60
2022/03/24 08:15:08;;;;;;;8.48;4.50;;;;;;;20.11;39.54;97886.63;10539001;28;20631;-60
2022/03/24 08:20:29;;;;;;;8.60;4.30;;;;;;;20.10;39.37;97882.34;10558173;28;20044;-59
2022/03/24 08:25:48;;;;;;;8.50;4.78;;;;;;;20.12;39.42;97885.53;10544767;28;20055;-59
2022/03/24 08:31:08;;;;;;;9.20;4.38;;;;;;;20.11;39.31;97892.88;10551600;28;20586;-60
2022/03/24 08:36:27;;;;;;;6.55;4.13;;;;;;;20.11;39.22;97886.63;10546200;28;20052;-60
2022/03/24 08:41:47;;;;;;;7.70;4.68;;;;;;;20.11;39.32;97892.03;10544431;28;20052;-60
2022/03/24 08:47:06;;;;;;;9.18;4.75;;;;;;;20.11;39.31;97892.03;10549903;28;20040;-59
2022/03/24 08:52:27;;;;;;;8.18;4.68;;;;;;;20.10;39.39;97887.75;10543547;28;20048;-60
2022/03/24 08:57:47;;;;;;;8.95;4.35;;;;;;;20.11;39.39;97887.47;10543503;28;20122;-59
2022/03/24 09:03:07;;;;;;;8.80;4.25;;;;;;;20.12;39.34;97890.97;10559636;28;20051;-60
2022/03/24 09:08:26;;;;;;;7.65;4.60;;;;;;;20.10;39.41;97893.94;10551609;28;20039;-60
2022/03/24 09:13:46;;;;;;;8.32;4.60;;;;;;;20.11;39.40;97889.34;10566015;28;20062;-60
2022/03/24 09:19:05;;;;;;;7.00;4.32;;;;;;;20.10;39.51;97887.75;10559151;28;20042;-60
2022/03/24 09:24:26;;;;;;;8.45;4.20;;;;;;;20.10;39.38;97901.28;10528808;28;20056;-59
2022/03/24 09:29:46;;;;;;;7.43;4.07;;;;;;;20.10;39.35;97904.78;10549742;28;20040;-59
2022/03/24 09:35:06;;;;;;;8.70;4.32;;;;;;;20.09;39.33;97903.19;10580246;28;20047;-59
2022/03/24 09:40:25;;;;;;;6.03;4.00;;;;;;;20.09;39.38;97905.06;10544289;28;20052;-60
2022/03/24 09:45:47;;;;;;;7.78;3.92;;;;;;;20.09;39.47;97910.47;10570146;28;20060;-59
2022/03/24 09:51:07;;;;;;;7.20;3.85;;;;;;;20.09;39.35;97905.91;10578448;28;20051;-59
2022/03/24 09:56:28;;;;;;;7.75;3.90;;;;;;;20.09;39.44;97910.47;10578176;28;20471;-59
2022/03/24 10:01:48;;;;;;;5.60;3.70;;;;;;;20.09;39.37;97918.59;10578109;28;20116;-59
2022/03/24 10:07:07;;;;;;;7.30;4.35;;;;;;;20.07;39.45;97905.41;10499614;28;20056;-59
2022/03/24 10:12:37;;;;;;;8.10;3.72;;;;;;;20.06;39.53;97911.88;10529336;28;20051;-59
2022/03/24 10:17:58;;;;;;;4.93;3.80;;;;;;;20.07;39.57;97909.97;10585845;28;20074;-59
2022/03/24 10:23:17;;;;;;;4.90;3.85;;;;;;;20.07;39.39;97910.81;10570854;28;20051;-59
2022/03/24 10:28:37;;;;;;;5.10;3.60;;;;;;;20.07;39.53;97899.97;10570727;28;20052;-59
2022/03/24 10:33:56;;;;;;;5.90;3.60;;;;;;;20.05;39.47;97907.59;10543391;28;20051;-59
2022/03/24 10:39:23;;;;;;;5.57;3.58;;;;;;;20.06;39.45;97897.56;10570317;28;20522;-59
2022/03/24 10:45:02;;;;;;;5.05;3.60;;;;;;;20.05;39.49;97901.38;10543506;28;20052;-59
2022/03/24 10:50:29;;;;;;;5.87;3.53;;;;;;;20.04;39.46;97894.38;10542904;28;20105;-59
2022/03/24 10:55:55;;;;;;;5.95;3.38;;;;;;;20.04;39.47;97899.78;10542257;28;20055;-59
2022/03/24 11:01:20;;;;;;;5.05;3.50;;;;;;;20.03;39.54;97892.75;10517298;28;20452;-59
2022/03/24 11:06:50;;;;;;;5.72;3.70;;;;;;;20.03;39.56;97890.03;10500540;28;20052;-60
2022/03/24 11:12:22;;;;;;;6.10;3.65;;;;;;;20.03;39.40;97884.63;10500483;28;20053;-59
2022/03/24 11:17:41;;;;;;;5.18;3.60;;;;;;;20.02;39.51;97885.75;10547036;28;20098;-59
2022/03/24 11:23:03;;;;;;;6.35;3.58;;;;;;;20.01;39.57;97881.44;10522212;28;20458;-59
2022/03/24 11:28:23;;;;;;;4.22;3.15;;;;;;;20.00;39.59;97875.22;10513100;28;20037;-59
2022/03/24 11:33:48;;;;;;;3.90;3.20;;;;;;;20.00;39.44;97869.03;10541582;28;20388;-59
2022/03/24 11:39:11;;;;;;;4.65;3.10;;;;;;;20.01;39.53;97873.31;10519751;28;20044;-59
2022/03/24 11:44:46;;;;;;;5.10;3.25;;;;;;;19.99;39.62;97865.50;10581992;28;20062;-59
2022/03/24 11:50:08;;;;;;;4.93;3.20;;;;;;;19.99;39.39;97860.09;10567300;28;20048;-59
2022/03/24 11:55:27;;;;;;;4.22;3.33;;;;;;;19.98;39.57;97853.09;10574315;28;20109;-59
2022/03/24 12:00:47;;;;;;;3.90;3.38;;;;;;;19.97;39.55;97847.97;10550812;28;20051;-59
2022/03/24 12:06:07;;;;;;;4.63;3.33;;;;;;;19.97;39.59;97843.38;10595961;28;20054;-59
2022/03/24 12:11:33;;;;;;;4.10;3.10;;;;;;;19.98;39.68;97842.28;10580339;28;20054;-59
2022/03/24 12:16:53;;;;;;;4.95;3.20;;;;;;;19.97;39.64;97843.38;10581063;28;20093;-59
2022/03/24 12:22:35;;;;;;;4.43;3.10;;;;;;;19.97;39.64;97839.88;10568769;28;20441;-59
2022/03/24 12:28:05;;;;;;;4.13;2.90;;;;;;;19.95;39.61;97819.34;10567984;28;20047;-59
2022/03/24 12:33:46;;;;;;;3.95;2.80;;;;;;;19.94;39.78;97815.03;10567090;28;20055;-59
2022/03/24 12:39:08;;;;;;;3.90;2.72;;;;;;;19.94;39.78;97820.44;10578258;28;20039;-59
2022/03/24 12:44:57;;;;;;;3.95;2.88;;;;;;;19.95;39.81;97805.81;10580167;28;20495;-59
2022/03/24 12:50:17;;;;;;;5.40;2.95;;;;;;;19.95;39.70;97805.00;10579823;28;20052;-59
2022/03/24 12:55:42;;;;;;;3.85;2.85;;;;;;;19.93;39.66;97809.91;10540172;28;20058;-59
2022/03/24 13:01:01;;;;;;;3.38;2.80;;;;;;;19.94;39.72;97803.41;10499465;28;20101;-59
2022/03/24 13:06:21;;;;;;;4.85;3.10;;;;;;;19.93;39.77;97797.22;10538215;28;20047;-59
2022/03/24 13:12:12;;;;;;;5.38;2.90;;;;;;;19.92;39.79;97792.88;10543093;28;20412;-59
2022/03/24 13:17:32;;;;;;;4.10;2.70;;;;;;;19.93;39.69;97785.56;10578721;28;20048;-59
2022/03/24 13:22:53;;;;;;;4.28;2.65;;;;;;;19.92;39.69;97784.78;10561335;28;20058;-59
2022/03/24 13:28:16;;;;;;;4.32;2.78;;;;;;;19.92;39.76;97787.47;10536577;28;20052;-59
2022/03/24 13:33:36;;;;;;;4.47;2.90;;;;;;;19.92;39.82;97784.78;10540255;28;20055;-59
2022/03/24 13:38:55;;;;;;;3.58;2.70;;;;;;;19.91;39.91;97777.75;10579197;28;20058;-59
2022/03/24 13:44:15;;;;;;;14.95;11.65;;;;;;;19.88;36.70;97783.78;10562244;28;20494;-61
2022/03/24 13:49:35;;;;;;;20.00;15.50;;;;;;;19.84;33.39;97773.88;10539067;28;20051;-60
2022/03/24 13:55:14;;;;;;;18.23;15.43;;;;;;;19.77;31.34;97762.66;10535697;28;20056;-60
2022/03/24 14:00:43;;;;;;;17.02;13.48;;;;;;;19.74;31.88;97761.38;10535018;28;20097;-60
2022/03/24 14:06:13;;;;;;;13.57;11.95;;;;;;;19.74;31.98;97761.38;10536324;28;20135;-60
2022/03/24 14:11:36;;;;;;;13.00;11.57;;;;;;;19.73;31.79;97752.44;10533347;28;20040;-60
2022/03/24 14:16:56;;;;;;;13.75;11.38;;;;;;;19.75;31.98;97744.03;10546300;28;20074;-59
2022/03/24 14:22:16;;;;;;;12.07;10.50;;;;;;;19.74;31.98;97756.75;10519468;28;20472;-59
2022/03/24 14:27:47;;;;;;;12.80;10.25;;;;;;;19.75;31.82;97750.22;10534003;28;20048;-59
2022/03/24 14:33:18;;;;;;;12.82;11.20;;;;;;;19.75;30.55;97735.91;10536231;28;20065;-60
2022/03/24 14:38:38;;;;;;;17.02;13.80;;;;;;;19.72;28.63;97737.34;10545881;28;20040;-60
2022/03/24 14:43:58;;;;;;;12.43;11.13;;;;;;;19.72;30.48;97736.53;10533039;28;20048;-60
2022/03/24 14:49:18;;;;;;;12.32;10.52;;;;;;;19.70;30.15;97730.59;10531792;28;20054;-59
2022/03/24 14:54:38;;;;;;;13.38;9.95;;;;;;;19.71;30.20;97724.09;10538228;28;20059;-60
2022/03/24 14:59:57;;;;;;;11.13;10.00;;;;;;;19.71;30.08;97729.50;10540227;28;20059;-59
2022/03/24 15:05:17;;;;;;;13.45;9.18;;;;;;;19.72;29.86;97723.03;10536802;28;20056;-59
2022/03/24 15:10:37;;;;;;;11.25;9.40;;;;;;;19.72;29.66;97725.72;10539200;28;20554;-59
2022/03/24 15:16:02;;;;;;;10.27;9.20;;;;;;;19.72;29.51;97714.91;10559527;28;20070;-59
2022/03/24 15:21:24;;;;;;;11.75;9.07;;;;;;;19.70;29.30;97712.47;10560678;28;20044;-59
2022/03/24 15:26:44;;;;;;;9.27;8.13;;;;;;;19.71;29.18;97713.28;10541219;28;20553;-59
2022/03/24 15:32:04;;;;;;;10.43;8.43;;;;;;;19.72;29.02;97718.41;10540670;28;20066;-59
2022/03/24 15:37:24;;;;;;;11.88;8.70;;;;;;;19.71;28.98;97713.28;10555307;28;20044;-59
2022/03/24 15:42:43;;;;;;;10.13;8.25;;;;;;;19.71;28.79;97707.88;10545064;28;20071;-59
2022/03/24 15:48:03;;;;;;;10.02;8.60;;;;;;;19.71;28.71;97707.88;10541118;28;20505;-59
2022/03/24 15:53:22;;;;;;;9.85;7.70;;;;;;;19.70;28.63;97703.56;10548878;28;20040;-60
2022/03/24 15:58:42;;;;;;;16.10;12.23;;;;;;;19.67;27.29;97701.47;10563805;28;20077;-60
2022/03/24 16:04:01;;;;;;;14.52;12.88;;;;;;;19.63;26.38;97708.59;10559156;28;20063;-60
2022/03/24 16:09:20;;;;;;;14.90;12.43;;;;;;;19.59;26.01;97707.59;10549662;28;20506;-60
2022/03/24 16:14:40;;;;;;;17.15;13.70;;;;;;;19.53;25.28;97707.69;10538681;28;20056;-60
2022/03/24 16:20:00;;;;;;;17.25;13.73;;;;;;;19.46;24.93;97703.78;10529658;28;20054;-60
2022/03/24 16:25:19;;;;;;;17.02;11.90;;;;;;;19.44;25.67;97708.69;10538470;28;20055;-59
2022/03/24 16:30:39;;;;;;;12.18;10.07;;;;;;;19.43;26.68;97709.81;10548134;28;20052;-59
2022/03/24 16:35:58;;;;;;;10.82;9.52;;;;;;;19.43;27.19;97707.91;10539090;28;20048;-59
2022/03/24 16:41:18;;;;;;;10.85;8.88;;;;;;;19.43;27.85;97705.19;10517044;28;20561;-58
2022/03/24 16:46:37;;;;;;;8.95;8.02;;;;;;;19.44;28.09;97708.69;10536717;28;20523;-59
2022/03/24 16:51:57;;;;;;;10.55;7.95;;;;;;;19.43;28.32;97709.81;10538855;28;20082;-59
2022/03/24 16:57:16;;;;;;;8.50;7.38;;;;;;;19.42;28.63;97708.97;10542408;28;20040;-62
2022/03/24 17:02:35;;;;;;;7.70;6.35;;;;;;;19.43;29.29;97720.63;10539292;28;20449;-59
2022/03/24 17:07:55;;;;;;;6.25;5.65;;;;;;;19.44;30.20;97714.09;10538160;28;20055;-58
2022/03/24 17:13:14;;;;;;;9.73;5.55;;;;;;;19.44;30.89;97714.88;10551560;28;20142;-62
2022/03/24 17:18:33;;;;;;;6.93;5.15;;;;;;;19.43;31.71;97718.69;10497584;28;20049;-57
2022/03/24 17:23:53;;;;;;;5.93;5.13;;;;;;;19.42;32.20;97714.38;10502380;28;20059;-61
2022/03/24 17:29:12;;;;;;;6.25;4.82;;;;;;;19.43;32.35;97726.81;10536288;28;20040;-61
2022/03/24 17:34:32;;;;;;;9.82;5.15;;;;;;;19.43;32.87;97723.31;10543371;28;20054;-60
2022/03/24 17:39:51;;;;;;;7.25;5.15;;;;;;;19.43;33.33;97729.50;10549930;28;20044;-60
2022/03/24 17:45:11;;;;;;;9.20;4.93;;;;;;;19.42;33.60;97730.59;10537239;28;20048;-55
2022/03/24 17:50:31;;;;;;;10.20;4.97;;;;;;;19.42;34.20;97722.50;10537121;28;20475;-58
2022/03/24 17:55:50;;;;;;;7.90;6.30;;;;;;;19.42;34.43;97727.09;10535282;28;20048;-60
2022/03/24 18:01:11;;;;;;;6.68;5.00;;;;;;;19.40;34.53;97735.50;10535862;28;20468;-60
2022/03/24 18:06:30;;;;;;;6.22;4.30;;;;;;;19.40;34.97;97740.13;10549464;28;20085;-60
2022/03/24 18:11:50;;;;;;;6.22;4.53;;;;;;;19.39;35.31;97739.31;10520394;28;20491;-57
2022/03/24 18:17:10;;;;;;;9.70;4.80;;;;;;;19.39;35.86;97739.31;10533963;28;20067;-60
2022/03/24 18:22:29;;;;;;;4.40;4.00;;;;;;;19.39;36.08;97743.94;10532682;28;20220;-60
2022/03/24 18:27:48;;;;;;;8.38;4.90;;;;;;;19.39;36.70;97750.13;10537942;28;20052;-57
2022/03/24 18:33:09;;;;;;;5.88;4.22;;;;;;;19.39;36.94;97755.53;10541825;28;20044;-58
2022/03/24 18:38:29;;;;;;;4.45;4.00;;;;;;;19.40;37.20;97757.13;10542476;28;20056;-59
2022/03/24 18:43:48;;;;;;;5.85;4.20;;;;;;;19.40;37.41;97761.72;10542954;28;20079;-59
2022/03/24 18:49:08;;;;;;;4.88;3.92;;;;;;;19.39;38.06;97766.34;10542504;28;20467;-59
2022/03/24 18:54:28;;;;;;;6.95;3.95;;;;;;;19.40;38.29;97764.44;10553214;28;20036;-58
2022/03/24 18:59:48;;;;;;;6.20;4.03;;;;;;;19.40;38.80;97773.34;10539044;28;20122;-57
2022/03/24 19:05:08;;;;;;;6.00;4.22;;;;;;;19.41;39.50;97774.16;10540486;28;20052;-59
2022/03/24 19:10:28;;;;;;;5.90;4.05;;;;;;;19.40;39.92;97777.94;10540355;28;20097;-56
2022/03/24 19:15:48;;;;;;;6.80;4.10;;;;;;;19.40;40.17;97777.94;10554548;28;20032;-60
2022/03/24 19:21:08;;;;;;;6.68;4.25;;;;;;;19.40;40.41;97786.84;10524378;28;20048;-61
2022/03/24 19:26:28;;;;;;;6.97;4.10;;;;;;;19.40;40.65;97786.84;10549110;28;20036;-55
2022/03/24 19:31:48;;;;;;;4.50;3.78;;;;;;;19.38;41.10;97778.25;10541298;28;20403;-58
2022/03/24 19:37:08;;;;;;;5.57;3.92;;;;;;;19.39;41.10;97787.16;10551394;28;20105;-57
2022/03/24 19:42:28;;;;;;;6.47;4.45;;;;;;;19.39;41.55;97787.97;10545715;28;20052;-60
2022/03/24 19:47:47;;;;;;;5.07;3.88;;;;;;;19.40;41.79;97792.25;10530256;28;20052;-59
2022/03/24 19:53:07;;;;;;;5.75;4.10;;;;;;;19.39;41.88;97790.66;10530153;28;20052;-57
2022/03/24 19:58:26;;;;;;;4.75;3.90;;;;;;;19.38;41.98;97789.03;10536014;28;20055;-60
2022/03/24 20:03:47;;;;;;;5.80;3.75;;;;;;;19.39;42.16;97797.97;10539834;28;20059;-60
2022/03/24 20:09:06;;;;;;;5.55;4.00;;;;;;;19.39;42.22;97803.38;10552518;28;20047;-58
2022/03/24 20:14:26;;;;;;;8.00;3.95;;;;;;;19.38;42.16;97799.84;10537387;28;20055;-59
2022/03/24 20:19:46;;;;;;;6.13;3.80;;;;;;;19.37;42.23;97811.78;10538499;28;20094;-60
2022/03/24 20:25:06;;;;;;;5.10;3.70;;;;;;;19.36;42.44;97813.66;10538333;28;20075;-59
2022/03/24 20:30:27;;;;;;;8.38;4.00;;;;;;;19.36;42.82;97816.34;10537473;28;20036;-58
2022/03/24 20:35:47;;;;;;;6.07;4.10;;;;;;;19.36;42.54;97815.56;10537612;28;20048;-58
2022/03/24 20:41:07;;;;;;;6.05;3.50;;;;;;;19.35;42.50;97811.28;10500128;28;20049;-58
2022/03/24 20:46:30;;;;;;;6.40;3.47;;;;;;;19.35;42.56;97819.38;10547890;28;20040;-57
2022/03/24 20:51:51;;;;;;;4.57;3.67;;;;;;;19.34;42.50;97812.38;10551152;28;20093;-59
2022/03/24 20:57:10;;;;;;;3.75;3.30;;;;;;;19.33;42.41;97816.19;10533457;28;20040;-59
2022/03/24 21:02:30;;;;;;;5.57;3.40;;;;;;;19.33;42.45;97822.38;10530153;28;20052;-58
2022/03/24 21:07:50;;;;;;;5.78;3.40;;;;;;;19.33;42.59;97821.59;10536840;28;20055;-60
2022/03/24 21:13:10;;;;;;;5.10;3.30;;;;;;;19.31;42.40;97813.78;10551459;28;20036;-58
2022/03/24 21:18:31;;;;;;;4.57;3.55;;;;;;;19.32;42.46;97819.97;10536031;28;20056;-60
2022/03/24 21:23:51;;;;;;;4.60;3.30;;;;;;;19.30;42.47;97811.34;10548476;28;20047;-60
2022/03/24 21:29:10;;;;;;;5.72;3.00;;;;;;;19.30;42.56;97812.16;10534428;28;20044;-58
2022/03/24 21:34:35;;;;;;;4.35;3.25;;;;;;;19.29;42.50;97812.47;10537334;28;20058;-59
2022/03/24 21:39:55;;;;;;;4.13;3.08;;;;;;;19.29;42.51;97812.47;10536259;28;20693;-59
2022/03/24 21:45:15;;;;;;;4.25;3.45;;;;;;;19.27;42.73;97811.97;10537095;28;20529;-62
2022/03/24 21:50:35;;;;;;;5.88;3.25;;;;;;;19.28;42.48;97810.84;10537697;28;20051;-60
2022/03/24 21:55:54;;;;;;;3.92;2.90;;;;;;;19.28;42.37;97813.56;10520689;28;20353;-60
2022/03/24 22:01:14;;;;;;;4.32;3.08;;;;;;;19.28;42.38;97818.97;10493043;28;20060;-60
2022/03/24 22:06:33;;;;;;;5.65;2.90;;;;;;;19.28;42.23;97818.97;10493959;28;20048;-60
2022/03/24 22:11:53;;;;;;;3.55;3.10;;;;;;;19.26;42.04;97816.56;10497106;28;20064;-60
2022/03/24 22:17:12;;;;;;;4.03;3.10;;;;;;;19.26;42.07;97821.16;10510289;28;20483;-60
2022/03/24 22:22:32;;;;;;;3.85;3.00;;;;;;;19.24;41.92;97812.56;10493599;28;20067;-60
2022/03/24 22:27:51;;;;;;;3.92;3.10;;;;;;;19.23;42.08;97811.75;10494369;28;20063;-60
2022/03/24 22:33:11;;;;;;;3.58;3.13;;;;;;;19.22;41.81;97812.03;10493690;28;20113;-60
2022/03/24 22:38:31;;;;;;;4.05;2.88;;;;;;;19.22;41.91;97814.75;10497588;28;20477;-60
2022/03/24 22:43:51;;;;;;;4.10;3.05;;;;;;;19.21;41.67;97808.56;10495703;28;20083;-60
2022/03/24 22:49:11;;;;;;;4.20;2.67;;;;;;;19.21;41.58;97821.25;10492811;28;20045;-60
2022/03/24 22:54:30;;;;;;;5.85;2.97;;;;;;;19.19;41.66;97805.34;10478305;28;20077;-60
2022/03/24 22:59:49;;;;;;;3.50;2.78;;;;;;;19.17;41.62;97802.94;10497335;28;20041;-60
2022/03/24 23:05:09;;;;;;;4.88;3.00;;;;;;;19.17;41.69;97799.44;10523304;28;20055;-60
2022/03/24 23:10:29;;;;;;;4.75;3.03;;;;;;;19.15;41.45;97807.84;10526932;28;20056;-60
2022/03/24 23:15:49;;;;;;;4.28;3.30;;;;;;;19.15;41.67;97809.72;10535612;28;20492;-60
2022/03/24 23:21:09;;;;;;;3.67;2.90;;;;;;;19.13;41.34;97811.91;10540338;28;20094;-60
2022/03/24 23:26:28;;;;;;;3.55;2.97;;;;;;;19.13;41.46;97814.63;10555862;28;20044;-60
2022/03/24 23:31:48;;;;;;;2.90;2.70;;;;;;;19.11;41.30;97809.53;10565936;28;20395;-59
2022/03/24 23:37:08;;;;;;;2.97;2.67;;;;;;;19.11;41.31;97812.22;10545028;28;20052;-60
2022/03/24 23:42:27;;;;;;;3.33;2.83;;;;;;;19.09;41.26;97819.81;10564538;28;20414;-60
2022/03/24 23:47:47;;;;;;;3.35;2.70;;;;;;;19.10;41.18;97818.72;10559325;28;20483;-60
2022/03/24 23:53:06;;;;;;;3.22;2.85;;;;;;;19.09;41.25;97824.41;10551814;28;20767;-60
2022/03/24 23:58:26;;;;;;;4.13;2.75;;;;;;;19.08;41.23;97814.72;10532330;28;20499;-60
